createdAt,value
2023-02-13T00:00:09.010Z,6.53
2023-02-13T00:02:43.406Z,7.57
2023-02-13T00:05:16.460Z,7.78
2023-02-13T00:07:49.315Z,7.82
2023-02-13T00:10:22.477Z,7.07
2023-02-13T00:12:55.350Z,7.03
2023-02-13T00:15:28.701Z,7.00
2023-02-13T00:18:03.092Z,7.13
2023-02-13T00:20:36.065Z,7.35
2023-02-13T00:23:08.942Z,7.30
2023-02-13T00:25:41.868Z,7.30
2023-02-13T00:28:15.117Z,7.53
2023-02-13T00:30:48.163Z,6.95
2023-02-13T00:33:22.899Z,7.20
2023-02-13T00:36:04.199Z,7.47
2023-02-13T00:38:37.649Z,7.35
2023-02-13T00:41:11.457Z,7.78
2023-02-13T00:43:44.685Z,6.88
2023-02-13T00:46:18.380Z,7.18
2023-02-13T00:48:52.721Z,7.03
2023-02-13T00:51:25.695Z,7.53
2023-02-13T00:53:58.698Z,7.63
2023-02-13T00:56:31.625Z,6.95
2023-02-13T00:59:04.571Z,7.30
2023-02-13T01:01:37.592Z,7.55
2023-02-13T01:04:12.201Z,8.18
2023-02-13T01:06:45.127Z,8.20
2023-02-13T01:09:18.068Z,7.68
2023-02-13T01:11:51.491Z,8.30
2023-02-13T01:14:24.508Z,8.23
2023-02-13T01:16:57.545Z,7.30
2023-02-13T01:19:31.959Z,8.30
2023-02-13T01:22:12.547Z,7.70
2023-02-13T01:24:50.222Z,7.28
2023-02-13T01:27:23.280Z,7.18
2023-02-13T01:30:00.813Z,7.57
2023-02-13T01:32:33.703Z,8.07
2023-02-13T01:35:09.745Z,7.60
2023-02-13T01:37:44.203Z,7.97
2023-02-13T01:40:17.700Z,8.05
2023-02-13T01:42:50.939Z,7.40
2023-02-13T01:45:31.432Z,7.97
2023-02-13T01:48:08.599Z,7.38
2023-02-13T01:50:47.653Z,8.10
2023-02-13T01:53:40.854Z,7.53
2023-02-13T01:56:21.986Z,7.70
2023-02-13T01:58:59.442Z,7.82
2023-02-13T02:01:33.739Z,7.63
2023-02-13T02:04:11.595Z,7.50
2023-02-13T02:06:49.256Z,8.02
2023-02-13T02:09:29.542Z,7.88
2023-02-13T02:12:07.093Z,7.55
2023-02-13T02:14:41.725Z,7.75
2023-02-13T02:17:15.917Z,7.95
2023-02-13T02:19:55.217Z,7.78
2023-02-13T02:23:22.405Z,7.68
2023-02-13T02:26:34.119Z,7.82
2023-02-13T02:29:42.608Z,7.13
2023-02-13T02:32:45.541Z,7.00
2023-02-13T02:35:29.494Z,7.70
2023-02-13T02:38:18.123Z,8.23
2023-02-13T02:40:59.633Z,7.75
2023-02-13T02:43:46.924Z,7.32
2023-02-13T02:46:28.315Z,7.30
2023-02-13T02:49:24.653Z,8.05
2023-02-13T02:52:06.188Z,7.85
2023-02-13T02:55:03.780Z,9.02
2023-02-13T02:58:01.535Z,11.05
2023-02-13T03:00:52.182Z,11.45
2023-02-13T03:03:44.495Z,11.52
2023-02-13T03:06:26.032Z,12.32
2023-02-13T03:09:20.676Z,12.80
2023-02-13T03:12:13.906Z,12.63
2023-02-13T03:14:47.192Z,13.27
2023-02-13T03:17:38.615Z,13.52
2023-02-13T03:20:38.740Z,14.00
2023-02-13T03:23:41.334Z,13.85
2023-02-13T03:26:50.372Z,13.38
2023-02-13T03:29:53.655Z,14.13
2023-02-13T03:32:38.566Z,14.50
2023-02-13T03:35:42.709Z,13.27
2023-02-13T03:38:22.153Z,14.63
2023-02-13T03:41:22.041Z,14.18
2023-02-13T03:44:10.231Z,14.27
2023-02-13T03:46:48.973Z,14.40
2023-02-13T03:49:42.531Z,13.93
2023-02-13T03:52:23.590Z,13.38
2023-02-13T03:55:23.113Z,13.95
2023-02-13T03:58:17.068Z,13.13
2023-02-13T04:00:53.551Z,14.60
2023-02-13T04:03:32.428Z,15.48
2023-02-13T04:06:11.090Z,16.02
2023-02-13T04:08:44.676Z,15.15
2023-02-13T04:11:25.856Z,14.48
2023-02-13T04:14:01.330Z,14.82
2023-02-13T04:16:42.227Z,14.32
2023-02-13T04:19:18.730Z,14.43
2023-02-13T04:21:58.173Z,15.43
2023-02-13T04:24:31.580Z,14.77
2023-02-13T04:27:06.078Z,14.82
2023-02-13T04:29:38.938Z,14.10
2023-02-13T04:32:12.902Z,15.15
2023-02-13T04:34:45.771Z,14.60
2023-02-13T04:37:18.672Z,15.02
2023-02-13T04:39:55.122Z,14.90
2023-02-13T04:42:29.882Z,14.45
2023-02-13T04:45:05.935Z,14.65
2023-02-13T04:47:38.958Z,14.38
2023-02-13T04:50:12.532Z,13.80
2023-02-13T04:52:45.443Z,15.05
2023-02-13T04:55:18.399Z,16.05
2023-02-13T04:57:54.991Z,15.88
2023-02-13T05:00:29.846Z,16.40
2023-02-13T05:03:07.218Z,15.02
2023-02-13T05:05:41.242Z,15.30
2023-02-13T05:08:14.141Z,16.10
2023-02-13T05:10:47.081Z,15.63
2023-02-13T05:13:23.239Z,15.07
2023-02-13T05:15:56.245Z,16.65
2023-02-13T05:18:29.438Z,16.17
2023-02-13T05:21:19.873Z,15.32
2023-02-13T05:23:52.835Z,15.40
2023-02-13T05:26:25.719Z,16.17
2023-02-13T05:29:26.047Z,16.20
2023-02-13T05:31:59.932Z,15.38
2023-02-13T05:34:33.077Z,16.05
2023-02-13T05:37:05.957Z,16.60
2023-02-13T05:39:41.759Z,16.50
2023-02-13T05:42:14.670Z,16.73
2023-02-13T05:44:49.404Z,16.17
2023-02-13T05:47:22.781Z,16.35
2023-02-13T05:49:55.914Z,17.85
2023-02-13T05:52:30.972Z,16.73
2023-02-13T05:55:03.888Z,16.10
2023-02-13T05:57:36.734Z,16.83
2023-02-13T06:00:14.924Z,17.45
2023-02-13T06:02:50.283Z,16.30
2023-02-13T06:05:23.190Z,17.48
2023-02-13T06:07:56.057Z,17.33
2023-02-13T06:10:28.990Z,17.65
2023-02-13T06:13:01.887Z,18.30
2023-02-13T06:15:36.343Z,17.20
2023-02-13T06:18:09.816Z,18.52
2023-02-13T06:20:42.706Z,17.20
2023-02-13T06:23:15.790Z,16.45
2023-02-13T06:25:48.798Z,16.05
2023-02-13T06:28:21.711Z,16.95
2023-02-13T06:30:56.598Z,16.48
2023-02-13T06:33:29.807Z,15.77
2023-02-13T06:36:02.690Z,16.65
2023-02-13T06:38:35.590Z,16.38
2023-02-13T06:41:08.556Z,16.85
2023-02-13T06:43:41.555Z,17.08
2023-02-13T06:46:15.890Z,16.05
2023-02-13T06:48:48.795Z,17.40
2023-02-13T06:51:21.753Z,16.80
2023-02-13T06:53:54.700Z,17.23
2023-02-13T06:56:27.924Z,18.05
2023-02-13T06:59:00.814Z,18.08
2023-02-13T07:01:35.206Z,18.05
2023-02-13T07:04:08.088Z,18.33
2023-02-13T07:06:40.986Z,18.38
2023-02-13T07:09:14.294Z,18.65
2023-02-13T07:11:47.313Z,17.63
2023-02-13T07:14:20.324Z,18.30
2023-02-13T07:16:54.691Z,18.02
2023-02-13T07:19:27.617Z,17.75
2023-02-13T07:22:00.640Z,18.75
2023-02-13T07:24:35.441Z,17.77
2023-02-13T07:27:08.436Z,17.27
2023-02-13T07:29:41.330Z,16.77
2023-02-13T07:32:16.440Z,15.77
2023-02-13T07:35:00.845Z,16.33
2023-02-13T07:37:34.622Z,16.35
2023-02-13T07:40:09.074Z,16.13
2023-02-13T07:42:41.963Z,17.02
2023-02-13T07:45:23.445Z,16.10
2023-02-13T07:47:57.984Z,15.65
2023-02-13T07:50:31.053Z,16.45
2023-02-13T07:53:04.178Z,15.95
2023-02-13T07:55:39.392Z,16.40
2023-02-13T07:58:12.556Z,16.30
2023-02-13T08:00:45.472Z,16.80
2023-02-13T08:03:19.780Z,16.75
2023-02-13T08:05:52.736Z,17.40
2023-02-13T08:08:25.617Z,16.80
2023-02-13T08:11:21.646Z,15.77
2023-02-13T08:13:54.503Z,16.00
2023-02-13T08:16:27.461Z,16.77
2023-02-13T08:19:01.842Z,16.83
2023-02-13T08:21:35.343Z,15.95
2023-02-13T08:24:08.705Z,15.77
2023-02-13T08:26:41.938Z,17.02
2023-02-13T08:29:14.815Z,16.63
2023-02-13T08:31:47.831Z,17.13
2023-02-13T08:34:22.286Z,17.08
2023-02-13T08:36:55.255Z,16.05
2023-02-13T08:39:28.203Z,15.77
2023-02-13T08:42:01.246Z,15.30
2023-02-13T08:44:34.222Z,16.27
2023-02-13T08:47:07.248Z,15.95
2023-02-13T08:49:41.642Z,16.13
2023-02-13T08:52:14.600Z,15.43
2023-02-13T08:54:47.467Z,15.98
2023-02-13T08:57:20.462Z,14.77
2023-02-13T08:59:53.347Z,16.05
2023-02-13T09:02:26.281Z,15.02
2023-02-13T09:05:00.519Z,15.63
2023-02-13T09:07:33.425Z,14.75
2023-02-13T09:10:07.573Z,15.07
2023-02-13T09:12:40.552Z,15.55
2023-02-13T09:15:13.484Z,15.63
2023-02-13T09:17:46.522Z,16.50
2023-02-13T09:20:20.974Z,16.02
2023-02-13T09:22:53.959Z,16.55
2023-02-13T09:25:27.523Z,16.42
2023-02-13T09:28:01.066Z,15.80
2023-02-13T09:30:33.974Z,16.65
2023-02-13T09:33:11.967Z,16.23
2023-02-13T09:35:46.332Z,16.67
2023-02-13T09:38:19.440Z,16.45
2023-02-13T09:40:56.154Z,16.52
2023-02-13T09:43:32.013Z,16.77
2023-02-13T09:46:14.384Z,15.70
2023-02-13T09:48:51.065Z,16.15
2023-02-13T09:51:29.536Z,17.52
2023-02-13T09:54:05.980Z,17.35
2023-02-13T09:56:50.741Z,16.13
2023-02-13T09:59:36.697Z,16.35
2023-02-13T10:02:42.565Z,16.58
2023-02-13T10:05:29.547Z,15.98
2023-02-13T10:08:12.273Z,16.30
2023-02-13T10:10:54.496Z,16.45
2023-02-13T10:13:43.258Z,14.95
2023-02-13T10:16:20.764Z,15.73
2023-02-13T10:18:58.787Z,15.73
2023-02-13T10:21:37.062Z,15.18
2023-02-13T10:24:18.964Z,15.88
2023-02-13T10:29:49.663Z,14.50
2023-02-13T10:32:30.275Z,15.60
2023-02-13T10:35:05.266Z,15.73
2023-02-13T10:37:39.531Z,16.88
2023-02-13T10:40:15.674Z,15.32
2023-02-13T10:43:00.569Z,15.52
2023-02-13T10:45:50.716Z,15.75
2023-02-13T10:48:50.021Z,14.43
2023-02-13T10:51:31.438Z,15.77
2023-02-13T10:54:24.926Z,15.55
2023-02-13T10:57:08.911Z,16.58
2023-02-13T10:59:56.394Z,15.70
2023-02-13T11:02:31.829Z,15.75
2023-02-13T11:05:16.755Z,15.57
2023-02-13T11:07:50.056Z,16.73
2023-02-13T11:10:25.635Z,16.13
2023-02-13T11:13:19.345Z,16.60
2023-02-13T11:16:04.767Z,16.23
2023-02-13T11:18:41.709Z,17.48
2023-02-13T11:21:21.416Z,16.73
2023-02-13T11:23:56.443Z,16.88
2023-02-13T11:26:34.704Z,17.13
2023-02-13T11:29:21.791Z,17.83
2023-02-13T11:32:06.754Z,19.85
2023-02-13T11:34:39.972Z,19.92
2023-02-13T11:37:19.893Z,18.38
2023-02-13T11:39:54.786Z,18.90
2023-02-13T11:42:31.497Z,19.23
2023-02-13T11:45:08.698Z,19.23
2023-02-13T11:47:43.986Z,18.95
2023-02-13T11:50:27.134Z,18.52
2023-02-13T11:53:03.324Z,18.83
2023-02-13T11:55:39.121Z,18.58
2023-02-13T11:58:26.125Z,19.48
2023-02-13T12:01:38.196Z,18.92
2023-02-13T12:04:16.724Z,17.73
2023-02-13T12:07:01.445Z,17.60
2023-02-13T12:09:34.343Z,18.60
2023-02-13T12:12:08.140Z,18.55
2023-02-13T12:14:44.531Z,19.13
2023-02-13T12:17:31.278Z,20.20
2023-02-13T12:20:05.234Z,20.10
2023-02-13T12:22:48.467Z,19.02
2023-02-13T12:25:41.675Z,19.95
2023-02-13T12:28:17.301Z,18.73
2023-02-13T12:31:24.847Z,19.30
2023-02-13T12:34:22.529Z,18.48
2023-02-13T12:37:07.843Z,19.17
2023-02-13T12:39:49.394Z,19.33
2023-02-13T12:42:34.978Z,18.77
2023-02-13T12:45:22.775Z,19.92
2023-02-13T12:48:16.789Z,19.50
2023-02-13T12:51:00.954Z,20.63
2023-02-13T12:53:48.746Z,19.58
2023-02-13T12:56:32.766Z,19.00
2023-02-13T12:59:15.417Z,19.42
2023-02-13T13:02:17.007Z,20.05
2023-02-13T13:05:03.355Z,20.35
2023-02-13T13:07:55.381Z,18.48
2023-02-13T13:13:30.294Z,18.20
2023-02-13T13:16:11.389Z,18.77
2023-02-13T13:18:54.781Z,19.10
2023-02-13T13:21:36.603Z,18.75
2023-02-13T13:26:52.080Z,18.40
2023-02-13T13:29:31.051Z,19.23
2023-02-13T13:32:08.781Z,20.38
2023-02-13T13:34:41.698Z,20.05
2023-02-13T13:37:27.966Z,19.88
2023-02-13T13:40:11.372Z,19.65
2023-02-13T13:42:53.294Z,18.98
2023-02-13T13:48:21.224Z,18.45
2023-02-13T13:50:55.093Z,20.00
2023-02-13T13:53:28.059Z,20.15
2023-02-13T13:56:09.375Z,19.55
2023-02-13T13:58:44.973Z,18.63
2023-02-13T14:01:19.821Z,18.27
2023-02-13T14:03:55.275Z,20.35
2023-02-13T14:06:49.291Z,19.40
2023-02-13T14:09:40.146Z,18.58
2023-02-13T14:12:47.689Z,19.58
2023-02-13T14:15:52.220Z,18.17
2023-02-13T14:18:27.910Z,17.13
2023-02-13T14:21:03.517Z,18.42
2023-02-13T14:23:49.781Z,18.85
2023-02-13T14:26:41.736Z,18.00
2023-02-13T14:32:20.442Z,16.73
2023-02-13T14:37:36.751Z,16.77
2023-02-13T14:40:29.130Z,16.60
2023-02-13T14:43:20.678Z,19.63
2023-02-13T14:45:58.257Z,17.30
2023-02-13T14:48:43.305Z,18.38
2023-02-13T14:51:28.567Z,18.02
2023-02-13T14:54:07.079Z,17.67
2023-02-13T14:56:40.622Z,16.90
2023-02-13T14:59:18.269Z,16.90
2023-02-13T15:01:58.970Z,18.55
2023-02-13T15:04:36.813Z,18.42
2023-02-13T15:07:17.276Z,18.83
2023-02-13T15:09:53.952Z,18.35
2023-02-13T15:12:29.346Z,19.58
2023-02-13T15:15:03.190Z,18.90
2023-02-13T15:17:40.235Z,19.13
2023-02-13T15:20:25.024Z,18.65
2023-02-13T15:22:58.776Z,18.77
2023-02-13T15:25:35.677Z,18.83
2023-02-13T15:28:16.469Z,17.67
2023-02-13T15:30:57.079Z,16.85
2023-02-13T15:33:38.324Z,19.63
2023-02-13T15:36:20.131Z,19.45
2023-02-13T15:39:00.351Z,19.02
2023-02-13T15:41:37.044Z,18.63
2023-02-13T15:44:18.940Z,18.77
2023-02-13T15:49:28.366Z,18.95
2023-02-13T15:52:06.360Z,18.05
2023-02-13T15:54:50.381Z,17.80
2023-02-13T15:57:24.873Z,18.80
2023-02-13T15:59:59.846Z,18.35
2023-02-13T16:02:41.448Z,17.90
2023-02-13T16:05:26.566Z,16.85
2023-02-13T16:08:32.356Z,16.83
2023-02-13T16:11:22.564Z,17.25
2023-02-13T16:14:13.954Z,18.30
2023-02-13T16:16:53.908Z,16.55
2023-02-13T16:19:31.862Z,18.25
2023-02-13T16:22:17.414Z,17.30
2023-02-13T16:24:53.293Z,17.27
2023-02-13T16:27:28.931Z,16.85
2023-02-13T16:30:22.716Z,17.73
2023-02-13T16:33:12.216Z,18.08
2023-02-13T16:35:48.687Z,17.30
2023-02-13T16:38:34.360Z,16.92
2023-02-13T16:41:28.763Z,16.70
2023-02-13T16:44:02.600Z,16.25
2023-02-13T16:46:37.518Z,17.63
2023-02-13T16:49:32.798Z,16.17
2023-02-13T16:52:12.658Z,17.10
2023-02-13T16:55:04.419Z,16.92
2023-02-13T16:57:37.365Z,16.40
2023-02-13T17:00:20.553Z,16.83
2023-02-13T17:02:53.447Z,18.40
2023-02-13T17:05:28.934Z,16.95
2023-02-13T17:08:01.858Z,17.80
2023-02-13T17:10:37.858Z,18.25
2023-02-13T17:13:17.622Z,17.85
2023-02-13T17:15:51.879Z,18.45
2023-02-13T17:18:24.869Z,17.52
2023-02-13T17:20:58.043Z,18.23
2023-02-13T17:23:31.218Z,17.30
2023-02-13T17:26:05.866Z,17.75
2023-02-13T17:28:38.807Z,18.10
2023-02-13T17:31:14.059Z,16.80
2023-02-13T17:33:47.058Z,17.55
2023-02-13T17:36:19.941Z,16.80
2023-02-13T17:38:52.823Z,18.10
2023-02-13T17:41:27.532Z,17.63
2023-02-13T17:44:00.409Z,18.27
2023-02-13T17:46:34.434Z,16.38
2023-02-13T17:49:07.526Z,15.93
2023-02-13T17:51:43.837Z,15.25
2023-02-13T17:54:17.924Z,15.07
2023-02-13T17:56:52.222Z,15.18
2023-02-13T17:59:25.706Z,15.90
2023-02-13T18:01:58.718Z,16.63
2023-02-13T18:04:31.779Z,16.35
2023-02-13T18:07:04.770Z,15.02
2023-02-13T18:09:37.860Z,16.25
2023-02-13T18:12:15.329Z,15.10
2023-02-13T18:14:48.989Z,15.77
2023-02-13T18:17:22.356Z,14.77
2023-02-13T18:19:58.052Z,14.65
2023-02-13T18:22:30.976Z,15.55
2023-02-13T18:25:04.603Z,14.95
2023-02-13T18:27:38.873Z,14.45
2023-02-13T18:30:14.376Z,13.55
2023-02-13T18:32:51.538Z,14.82
2023-02-13T18:35:24.937Z,14.73
2023-02-13T18:37:57.795Z,12.45
2023-02-13T18:40:30.836Z,12.18
2023-02-13T18:43:05.240Z,14.02
2023-02-13T18:45:38.827Z,14.45
2023-02-13T18:48:11.705Z,14.73
2023-02-13T18:50:44.836Z,16.98
2023-02-13T18:53:17.735Z,17.00
2023-02-13T18:55:50.737Z,18.27
2023-02-13T18:58:25.548Z,16.40
2023-02-13T19:00:58.757Z,16.65
2023-02-13T19:03:32.097Z,15.80
2023-02-13T19:06:08.333Z,15.57
2023-02-13T19:08:41.450Z,13.98
2023-02-13T19:11:16.422Z,14.38
2023-02-13T19:13:54.703Z,13.32
2023-02-13T19:16:29.630Z,13.23
2023-02-13T19:19:04.883Z,13.60
2023-02-13T19:21:39.539Z,13.23
2023-02-13T19:24:15.429Z,13.23
2023-02-13T19:26:48.510Z,13.00
2023-02-13T19:29:22.834Z,14.27
2023-02-13T19:31:55.991Z,12.82
2023-02-13T19:34:28.924Z,13.90
2023-02-13T19:37:01.864Z,13.75
2023-02-13T19:39:34.880Z,13.25
2023-02-13T19:42:07.839Z,14.35
2023-02-13T19:44:42.201Z,14.48
2023-02-13T19:47:15.302Z,14.13
2023-02-13T19:49:49.969Z,14.20
2023-02-13T19:52:24.457Z,13.63
2023-02-13T19:54:57.387Z,13.15
2023-02-13T19:57:30.311Z,13.02
2023-02-13T20:00:05.181Z,14.38
2023-02-13T20:02:38.376Z,14.13
2023-02-13T20:05:11.372Z,12.95
2023-02-13T20:07:44.331Z,14.65
2023-02-13T20:10:17.221Z,13.85
2023-02-13T20:12:53.789Z,14.13
2023-02-13T20:15:28.054Z,13.98
2023-02-13T20:18:01.084Z,14.35
2023-02-13T20:20:33.942Z,13.20
2023-02-13T20:23:07.166Z,13.98
2023-02-13T20:25:40.664Z,12.93
2023-02-13T20:28:13.668Z,14.45
2023-02-13T20:30:48.103Z,13.50
2023-02-13T20:33:21.067Z,14.48
2023-02-13T20:35:53.944Z,13.60
2023-02-13T20:38:26.909Z,13.38
2023-02-13T20:41:01.749Z,12.95
2023-02-13T20:43:35.827Z,13.55
2023-02-13T20:46:11.017Z,13.65
2023-02-13T20:48:45.679Z,12.73
2023-02-13T20:51:20.088Z,12.93
2023-02-13T20:53:53.026Z,13.43
2023-02-13T20:56:28.280Z,12.93
2023-02-13T20:59:02.659Z,13.35
2023-02-13T21:01:41.327Z,12.98
2023-02-13T21:04:19.104Z,13.48
2023-02-13T21:06:52.119Z,13.23
2023-02-13T21:09:25.866Z,13.15
2023-02-13T21:11:58.777Z,13.50
2023-02-13T21:14:31.817Z,12.32
2023-02-13T21:17:06.423Z,12.82
2023-02-13T21:19:39.880Z,12.95
2023-02-13T21:22:12.852Z,12.80
2023-02-13T21:24:45.733Z,13.05
2023-02-13T21:27:18.748Z,13.85
2023-02-13T21:29:51.779Z,14.43
2023-02-13T21:32:26.546Z,13.95
2023-02-13T21:34:59.528Z,14.25
2023-02-13T21:37:32.601Z,15.45
2023-02-13T21:40:06.377Z,14.27
2023-02-13T21:42:39.299Z,14.88
2023-02-13T21:45:12.636Z,15.38
2023-02-13T21:47:46.958Z,13.65
2023-02-13T21:50:22.265Z,13.57
2023-02-13T21:52:55.143Z,14.55
2023-02-13T21:55:34.041Z,14.82
2023-02-13T21:58:06.881Z,14.07
2023-02-13T22:00:39.770Z,15.55
2023-02-13T22:03:14.075Z,15.27
2023-02-13T22:05:47.857Z,16.23
2023-02-13T22:08:20.802Z,16.30
2023-02-13T22:10:54.914Z,16.88
2023-02-13T22:13:28.888Z,16.55
2023-02-13T22:16:02.263Z,17.45
2023-02-13T22:18:38.557Z,15.63
2023-02-13T22:21:13.661Z,16.75
2023-02-13T22:23:47.653Z,15.43
2023-02-13T22:26:22.573Z,15.50
2023-02-13T22:28:59.637Z,14.63
2023-02-13T22:31:33.260Z,16.55
2023-02-13T22:34:08.073Z,15.32
2023-02-13T22:36:41.366Z,15.73
2023-02-13T22:39:14.206Z,17.35
2023-02-13T22:41:47.686Z,16.75
2023-02-13T22:44:20.607Z,16.83
2023-02-13T22:46:53.581Z,16.48
2023-02-13T22:49:28.066Z,16.30
2023-02-13T22:52:01.085Z,15.50
2023-02-13T22:54:34.114Z,15.60
2023-02-13T22:57:07.342Z,15.98
2023-02-13T22:59:40.435Z,16.30
2023-02-13T23:02:13.412Z,15.73
2023-02-13T23:04:49.331Z,18.45
2023-02-13T23:07:22.552Z,17.50
2023-02-13T23:09:55.509Z,18.88
2023-02-13T23:12:36.203Z,18.85
2023-02-13T23:15:14.019Z,18.25
2023-02-13T23:18:04.553Z,18.63
2023-02-13T23:20:39.074Z,18.63
2023-02-13T23:23:12.641Z,17.95
2023-02-13T23:25:45.547Z,17.35
2023-02-13T23:28:18.575Z,17.55
2023-02-13T23:30:51.516Z,17.55
2023-02-13T23:33:24.492Z,18.88
2023-02-13T23:35:58.810Z,17.83
2023-02-13T23:38:31.824Z,16.98
2023-02-13T23:41:08.758Z,18.00
2023-02-13T23:43:41.725Z,17.95
2023-02-13T23:46:14.609Z,15.85
2023-02-13T23:48:47.485Z,14.63
2023-02-13T23:51:23.140Z,15.50
2023-02-13T23:53:57.390Z,15.63
2023-02-13T23:56:30.283Z,14.85
2023-02-13T23:59:03.190Z,13.85
